Hulmeville, Pennsylvania
Current Conditions -  °F | °C
As of 2:54 AM on Saturday 20 Dec 2014 (Local Time) from KPNE Reporting Station
Overcast Overcast  
Wind Chill: 29°   Ceiling: 2800
Heat Index: 35°   Visibility: 10mi
Dew Point: 21°   Wind: 8mph
Humidity: 57%   Direction: 360°N
Pressure: 30.23"   Gusts: NA
Location:  40.1816°N, 74.9144°W
Report Text: KPNE 200754Z AUTO 36007KT 10SM OVC028 02/M06 A3023 RMK AO2 SLP239 T00171061 TSNO $
Loading
Personal Weather Stations






























Interactive Weather Map New forecast layout! Learn more

10-Day Weather Forecast

Advertisements
Track Severe Weather on mobile